Time;durP1;ratioP1;P1;durP2;ratioP2;P2;SDS_P1;SDS_P2;PMS_P1;PMS_P2;Temp;Humidity;BMP_temperature;BMP_pressure;BME280_temperature;BME280_humidity;BME280_pressure;Samples;Min_cycle;Max_cycle;Signal;HPM_P1;HPM_P2
2022/11/08 00:01:34;;;;;;;5.60;2.93;;;7.40;98.00;;;;;;5072976;28;20453;-66
2022/11/08 00:04:04;;;;;;;5.00;2.60;;;7.30;98.00;;;;;;5072605;28;20801;-66
2022/11/08 00:14:46;;;;;;;4.00;2.70;;;7.20;98.00;;;;;;5072414;28;20829;-66
2022/11/08 00:17:14;;;;;;;3.50;2.47;;;7.10;98.00;;;;;;5072192;28;20496;-67
2022/11/08 00:19:44;;;;;;;3.63;2.33;;;7.10;98.00;;;;;;5072169;28;20458;-66
2022/11/08 00:22:11;;;;;;;5.63;2.57;;;7.10;98.00;;;;;;5072162;28;20457;-66
2022/11/08 00:24:39;;;;;;;5.57;3.20;;;7.10;98.00;;;;;;5072332;28;20455;-66
2022/11/08 00:27:11;;;;;;;5.17;3.00;;;7.20;98.00;;;;;;5071970;28;20496;-66
2022/11/08 00:29:38;;;;;;;2.47;1.73;;;7.10;98.00;;;;;;5072032;28;20482;-66
2022/11/08 00:32:08;;;;;;;3.07;2.20;;;7.10;98.00;;;;;;5072081;28;20893;-66
2022/11/08 00:34:36;;;;;;;8.43;2.67;;;7.10;98.00;;;;;;5072244;28;20464;-66
2022/11/08 00:37:04;;;;;;;4.33;2.30;;;7.10;98.00;;;;;;5071882;28;20451;-66
2022/11/08 00:39:32;;;;;;;2.87;2.10;;;7.00;98.00;;;;;;5072173;28;20854;-66
2022/11/08 00:41:59;;;;;;;6.63;3.00;;;7.00;98.00;;;;;;5071819;28;20469;-66
2022/11/08 00:44:26;;;;;;;8.63;3.50;;;6.90;98.00;;;;;;5072004;28;20468;-66
2022/11/08 00:46:53;;;;;;;7.70;3.10;;;6.90;98.00;;;;;;5071846;28;20507;-67
2022/11/08 00:49:21;;;;;;;2.23;1.90;;;7.00;98.00;;;;;;5072011;28;20459;-67
2022/11/08 00:51:48;;;;;;;4.57;2.53;;;7.00;98.00;;;;;;5071405;28;20876;-66
2022/11/08 00:54:18;;;;;;;6.50;3.20;;;6.90;98.00;;;;;;5071861;28;20828;-66
2022/11/08 00:56:45;;;;;;;5.83;2.97;;;6.80;98.00;;;;;;5071443;28;20462;-66
2022/11/08 00:59:13;;;;;;;4.33;2.47;;;6.70;98.00;;;;;;5071720;28;20462;-66
2022/11/08 01:01:41;;;;;;;5.17;2.33;;;6.80;98.00;;;;;;5071588;28;20464;-66
2022/11/08 01:04:09;;;;;;;4.03;2.53;;;6.80;98.00;;;;;;5071568;28;20458;-66
2022/11/08 01:06:39;;;;;;;4.90;2.63;;;6.60;98.00;;;;;;5071449;28;20803;-66
2022/11/08 01:09:08;;;;;;;3.47;2.47;;;6.60;98.00;;;;;;5071217;28;20907;-66
2022/11/08 01:11:44;;;;;;;11.03;3.30;;;6.60;98.00;;;;;;5071472;28;20461;-66
2022/11/08 01:14:11;;;;;;;4.47;3.07;;;6.50;98.00;;;;;;5071337;28;20464;-66
2022/11/08 01:16:38;;;;;;;3.57;2.30;;;6.30;98.00;;;;;;5071291;28;20462;-66
2022/11/08 01:19:05;;;;;;;3.23;1.83;;;6.20;98.00;;;;;;5071789;28;20460;-66
2022/11/08 01:21:32;;;;;;;3.10;2.17;;;6.30;98.00;;;;;;5071079;28;20460;-66
2022/11/08 01:23:59;;;;;;;5.40;2.20;;;6.30;98.00;;;;;;5071051;28;20465;-66
2022/11/08 01:26:28;;;;;;;4.17;2.43;;;6.40;98.00;;;;;;5071576;28;20507;-66
2022/11/08 01:28:58;;;;;;;2.73;2.03;;;6.50;98.00;;;;;;5071093;28;20841;-66
2022/11/08 01:31:28;;;;;;;5.30;1.97;;;6.60;98.00;;;;;;5071494;28;20955;-66
2022/11/08 01:33:56;;;;;;;4.80;2.60;;;6.50;98.00;;;;;;5071122;28;20455;-66
2022/11/08 01:36:26;;;;;;;4.97;2.57;;;6.50;98.00;;;;;;5071365;28;20471;-67
2022/11/08 01:38:53;;;;;;;5.40;2.53;;;6.50;98.00;;;;;;5071576;28;20456;-66
2022/11/08 01:41:22;;;;;;;3.50;2.13;;;6.50;98.00;;;;;;5071469;28;20458;-66
2022/11/08 01:43:50;;;;;;;3.30;1.90;;;6.60;98.00;;;;;;5071107;28;20461;-66
2022/11/08 01:46:38;;;;;;;3.20;2.27;;;6.60;98.00;;;;;;5071514;28;20453;-66
2022/11/08 01:49:40;;;;;;;3.70;1.90;;;6.50;98.00;;;;;;5071208;28;20560;-66
2022/11/08 01:52:16;;;;;;;2.43;2.03;;;6.40;98.00;;;;;;5070941;28;20470;-66
2022/11/08 01:54:48;;;;;;;2.97;1.47;;;6.30;98.00;;;;;;5071061;28;20457;-66
2022/11/08 01:57:20;;;;;;;4.17;2.20;;;6.20;98.00;;;;;;5071102;28;20462;-66
2022/11/08 01:59:50;;;;;;;2.90;2.10;;;6.10;98.00;;;;;;5071019;28;20982;-66
2022/11/08 02:02:19;;;;;;;3.20;2.00;;;6.10;98.00;;;;;;5071120;28;20825;-66
2022/11/08 02:04:47;;;;;;;1.67;1.63;;;6.20;98.00;;;;;;5071085;28;20493;-66
2022/11/08 02:07:16;;;;;;;3.77;2.30;;;6.20;98.00;;;;;;5070760;28;20760;-66
2022/11/08 02:09:46;;;;;;;1.87;1.83;;;6.20;98.00;;;;;;5070680;28;20469;-66
2022/11/08 02:12:14;;;;;;;3.70;2.40;;;6.20;98.00;;;;;;5070737;28;20527;-66
2022/11/08 02:14:41;;;;;;;2.73;2.47;;;6.30;98.00;;;;;;5070941;28;20462;-66
2022/11/08 02:17:09;;;;;;;2.63;2.00;;;6.20;98.00;;;;;;5070759;28;20450;-66
2022/11/08 02:19:43;;;;;;;3.07;2.37;;;6.20;98.00;;;;;;5070712;28;21144;-66
2022/11/08 02:22:18;;;;;;;2.93;2.20;;;6.10;98.00;;;;;;5068932;28;20468;-66
2022/11/08 02:24:47;;;;;;;5.30;2.77;;;6.10;98.00;;;;;;5070696;28;20460;-66
2022/11/08 02:27:15;;;;;;;4.87;1.90;;;6.00;98.00;;;;;;5071036;28;20959;-66
2022/11/08 02:29:42;;;;;;;2.63;1.90;;;6.00;98.00;;;;;;5071034;28;20810;-66
2022/11/08 02:32:11;;;;;;;4.37;2.57;;;6.00;98.00;;;;;;5071092;28;20468;-66
2022/11/08 02:34:42;;;;;;;2.17;1.77;;;6.00;98.00;;;;;;5070580;28;20449;-66
2022/11/08 02:37:11;;;;;;;3.73;2.23;;;6.00;98.00;;;;;;5074919;28;20479;-66
2022/11/08 02:39:38;;;;;;;4.03;2.13;;;5.90;98.00;;;;;;5075131;28;20475;-66
2022/11/08 02:42:13;;;;;;;3.90;1.90;;;5.90;98.00;;;;;;5074727;28;20457;-66
2022/11/08 02:44:40;;;;;;;5.43;2.63;;;5.80;98.00;;;;;;5075098;28;20471;-66
2022/11/08 02:47:07;;;;;;;7.90;3.03;;;5.80;98.00;;;;;;5074563;28;20455;-66
2022/11/08 02:49:34;;;;;;;3.47;1.93;;;5.70;98.00;;;;;;5074080;28;20481;-66
2022/11/08 02:52:01;;;;;;;4.00;1.90;;;5.60;98.00;;;;;;5073933;28;20856;-66
2022/11/08 02:54:28;;;;;;;2.60;2.00;;;5.60;98.00;;;;;;5074050;28;20461;-66
2022/11/08 02:56:55;;;;;;;2.90;2.10;;;5.60;98.00;;;;;;5074125;28;20488;-66
2022/11/08 02:59:24;;;;;;;2.23;1.57;;;5.70;98.00;;;;;;5074058;28;20514;-66
2022/11/08 03:01:51;;;;;;;3.10;2.10;;;5.70;98.00;;;;;;5074000;28;20503;-66
2022/11/08 03:04:18;;;;;;;3.73;2.53;;;5.70;98.00;;;;;;5074007;28;20457;-66
2022/11/08 03:06:45;;;;;;;5.50;3.20;;;5.80;98.00;;;;;;5073847;28;20456;-65
2022/11/08 03:09:12;;;;;;;2.77;1.83;;;5.90;98.00;;;;;;5073443;28;20488;-66
2022/11/08 03:11:39;;;;;;;3.93;1.80;;;5.80;98.00;;;;;;5073670;28;20457;-66
2022/11/08 03:14:06;;;;;;;5.67;2.23;;;5.80;98.00;;;;;;5073485;28;20464;-66
2022/11/08 03:16:35;;;;;;;2.73;1.70;;;5.80;98.00;;;;;;5073812;28;20466;-66
2022/11/08 03:19:02;;;;;;;4.63;2.23;;;5.70;98.00;;;;;;5073585;28;20465;-66
2022/11/08 03:21:30;;;;;;;3.30;1.77;;;5.60;98.00;;;;;;5073743;28;20458;-66
2022/11/08 03:23:57;;;;;;;2.40;2.20;;;5.60;98.00;;;;;;5073414;28;20465;-66
2022/11/08 03:26:24;;;;;;;2.63;2.33;;;5.60;98.00;;;;;;5073878;28;20796;-66
2022/11/08 03:28:52;;;;;;;3.20;2.10;;;5.40;98.00;;;;;;5073466;28;20488;-67
2022/11/08 03:31:19;;;;;;;2.27;1.70;;;5.40;98.00;;;;;;5073428;28;20461;-66
2022/11/08 03:33:47;;;;;;;4.73;2.00;;;5.40;98.00;;;;;;5073175;28;20462;-66
2022/11/08 03:36:14;;;;;;;3.50;2.40;;;5.50;98.00;;;;;;5073185;28;20472;-65
2022/11/08 03:38:44;;;;;;;6.73;2.87;;;5.50;98.00;;;;;;5073025;28;20453;-66
2022/11/08 03:41:11;;;;;;;3.83;2.60;;;5.50;98.00;;;;;;5072995;28;20448;-66
2022/11/08 03:43:39;;;;;;;6.93;3.20;;;5.50;98.00;;;;;;5072884;28;20461;-66
2022/11/08 03:46:06;;;;;;;4.10;2.67;;;5.50;98.00;;;;;;5073092;28;20452;-66
2022/11/08 03:48:33;;;;;;;3.30;2.00;;;5.40;98.00;;;;;;5071853;28;20663;-66
2022/11/08 03:51:01;;;;;;;4.07;2.57;;;5.40;98.00;;;;;;5073044;28;20462;-66
2022/11/08 03:53:28;;;;;;;3.80;2.20;;;5.30;98.00;;;;;;5072779;28;20455;-66
2022/11/08 03:55:58;;;;;;;5.30;2.90;;;5.30;98.00;;;;;;5072767;28;20458;-66
2022/11/08 03:58:25;;;;;;;3.03;1.70;;;5.10;98.00;;;;;;5072708;28;20742;-66
2022/11/08 04:00:52;;;;;;;7.13;3.03;;;5.20;98.00;;;;;;5072791;28;20446;-66
2022/11/08 04:03:21;;;;;;;4.23;2.00;;;5.30;98.00;;;;;;5072625;28;20460;-66
2022/11/08 04:05:48;;;;;;;2.97;1.70;;;5.30;98.00;;;;;;5072585;28;20458;-66
2022/11/08 04:08:17;;;;;;;5.13;2.13;;;5.30;98.00;;;;;;5072619;28;20486;-66
2022/11/08 04:10:44;;;;;;;3.30;2.00;;;5.30;98.00;;;;;;5072488;28;20453;-66
2022/11/08 04:15:57;;;;;;;4.33;2.13;;;5.10;98.00;;;;;;5072635;28;20603;-66
2022/11/08 04:21:21;;;;;;;3.93;1.40;;;5.10;98.00;;;;;;5071807;28;20924;-66
2022/11/08 04:23:51;;;;;;;2.40;1.47;;;5.10;98.00;;;;;;5072154;28;20449;-66
2022/11/08 04:26:19;;;;;;;4.30;2.60;;;5.10;98.00;;;;;;5072261;28;20705;-66
2022/11/08 04:28:47;;;;;;;5.13;1.90;;;5.10;98.00;;;;;;5072093;28;20476;-66
2022/11/08 04:31:16;;;;;;;4.50;2.60;;;5.20;98.00;;;;;;5071369;28;20892;-66
2022/11/08 04:33:45;;;;;;;4.20;2.73;;;5.30;98.00;;;;;;5071679;28;20460;-66
2022/11/08 04:36:15;;;;;;;2.00;1.70;;;5.30;98.00;;;;;;5072076;28;20460;-66
2022/11/08 04:38:42;;;;;;;4.43;2.13;;;5.20;98.00;;;;;;5071904;28;20518;-66
2022/11/08 04:41:12;;;;;;;2.07;1.70;;;5.10;98.00;;;;;;5071951;28;20508;-66
2022/11/08 04:43:40;;;;;;;2.50;1.70;;;4.90;98.00;;;;;;5071845;28;20616;-66
2022/11/08 04:46:08;;;;;;;3.10;2.10;;;4.90;98.00;;;;;;5071889;28;20801;-66
2022/11/08 04:48:36;;;;;;;6.23;2.10;;;4.90;98.00;;;;;;5071589;28;20488;-66
2022/11/08 04:51:06;;;;;;;2.60;1.73;;;5.00;98.00;;;;;;5071930;28;20456;-66
2022/11/08 04:53:34;;;;;;;2.73;1.80;;;5.00;98.00;;;;;;5071589;28;20459;-66
2022/11/08 04:56:02;;;;;;;3.00;2.07;;;5.00;98.00;;;;;;5071631;28;20486;-66
2022/11/08 04:58:35;;;;;;;2.00;1.80;;;5.10;98.00;;;;;;5071184;28;20448;-66
2022/11/08 05:01:02;;;;;;;3.57;2.33;;;5.10;98.00;;;;;;5071583;28;20450;-66
2022/11/08 05:03:30;;;;;;;2.17;1.93;;;4.90;98.00;;;;;;5071511;28;20465;-66
2022/11/08 05:06:00;;;;;;;2.37;1.70;;;4.80;98.00;;;;;;5071908;28;20459;-66
2022/11/08 05:08:29;;;;;;;2.40;1.77;;;4.70;98.00;;;;;;5071319;28;20489;-66
2022/11/08 05:11:01;;;;;;;2.27;1.67;;;4.80;98.00;;;;;;5071369;28;20526;-66
2022/11/08 05:13:30;;;;;;;3.20;2.10;;;4.90;98.00;;;;;;5071732;28;20516;-66
2022/11/08 05:16:02;;;;;;;5.93;2.33;;;4.90;98.00;;;;;;5071693;28;20464;-66
2022/11/08 05:18:29;;;;;;;3.40;1.73;;;5.00;98.00;;;;;;5071635;28;20451;-66
2022/11/08 05:23:42;;;;;;;3.00;2.03;;;5.10;98.00;;;;;;5071322;28;20925;-66
2022/11/08 05:26:10;;;;;;;6.00;2.20;;;5.00;98.00;;;;;;5071647;28;20485;-66
2022/11/08 05:28:39;;;;;;;1.77;1.67;;;5.00;98.00;;;;;;5071219;28;20495;-66
2022/11/08 05:31:08;;;;;;;3.80;1.83;;;5.10;98.00;;;;;;5071182;28;20942;-66
2022/11/08 05:33:35;;;;;;;3.93;2.00;;;5.10;98.00;;;;;;5071034;28;20870;-66
2022/11/08 05:36:05;;;;;;;2.30;1.97;;;4.90;98.00;;;;;;5071480;28;20481;-66
2022/11/08 05:38:33;;;;;;;1.60;1.40;;;4.80;98.00;;;;;;5071247;28;20935;-67
2022/11/08 05:41:03;;;;;;;3.30;2.03;;;4.90;98.00;;;;;;5071019;28;20466;-66
2022/11/08 05:43:30;;;;;;;2.03;1.50;;;5.00;98.00;;;;;;5071090;28;20489;-66
2022/11/08 05:45:58;;;;;;;2.23;1.60;;;4.90;98.00;;;;;;5071125;28;20457;-66
2022/11/08 05:48:27;;;;;;;1.80;1.43;;;5.00;98.00;;;;;;5071077;28;21004;-66
2022/11/08 05:50:54;;;;;;;3.50;1.60;;;5.00;98.00;;;;;;5070953;28;20464;-66
2022/11/08 05:53:22;;;;;;;1.90;1.50;;;5.00;98.00;;;;;;5070972;28;20460;-66
2022/11/08 05:55:50;;;;;;;2.33;1.87;;;4.90;98.00;;;;;;5070883;28;20455;-66
2022/11/08 05:58:17;;;;;;;4.07;2.33;;;4.80;98.00;;;;;;5071139;28;20452;-66
2022/11/08 06:00:45;;;;;;;6.00;1.90;;;4.90;98.00;;;;;;5070888;28;20463;-66
2022/11/08 06:03:12;;;;;;;1.93;1.70;;;4.90;98.00;;;;;;5070881;28;20862;-66
2022/11/08 06:05:41;;;;;;;2.63;1.83;;;5.00;98.00;;;;;;5071318;28;20457;-66
2022/11/08 06:08:08;;;;;;;4.30;2.17;;;5.00;98.00;;;;;;5071462;28;20778;-66
2022/11/08 06:10:35;;;;;;;3.60;2.00;;;5.00;98.00;;;;;;5072020;28;20485;-66
2022/11/08 06:13:02;;;;;;;2.97;1.73;;;5.10;98.00;;;;;;5074898;28;20464;-65
2022/11/08 06:15:33;;;;;;;1.63;1.40;;;5.10;98.00;;;;;;5074946;28;20520;-66
2022/11/08 06:18:02;;;;;;;2.00;1.73;;;5.10;98.00;;;;;;5074655;28;20809;-66
2022/11/08 06:20:30;;;;;;;3.00;2.07;;;5.10;98.00;;;;;;5074509;28;20452;-65
2022/11/08 06:22:58;;;;;;;10.93;3.60;;;5.20;98.00;;;;;;5074505;28;20529;-66
2022/11/08 06:25:25;;;;;;;2.70;2.27;;;5.00;98.00;;;;;;5074407;28;20514;-66
2022/11/08 06:27:53;;;;;;;4.10;2.43;;;5.00;98.00;;;;;;5074328;28;20456;-66
2022/11/08 06:30:20;;;;;;;3.60;2.27;;;5.00;98.00;;;;;;5074410;28;20873;-66
2022/11/08 06:32:49;;;;;;;2.30;1.90;;;5.00;98.00;;;;;;5074282;28;20471;-66
2022/11/08 06:35:16;;;;;;;2.80;2.07;;;5.00;98.00;;;;;;5074629;28;20865;-66
2022/11/08 06:37:43;;;;;;;2.50;1.87;;;5.00;98.00;;;;;;5074179;28;20871;-66
2022/11/08 06:40:13;;;;;;;2.37;1.97;;;4.90;98.00;;;;;;5074278;28;20806;-66
2022/11/08 06:42:40;;;;;;;3.80;2.40;;;5.00;98.00;;;;;;5073887;28;20558;-66
2022/11/08 06:45:08;;;;;;;3.13;2.00;;;5.10;98.00;;;;;;5074264;28;20463;-66
2022/11/08 06:47:35;;;;;;;2.47;2.00;;;5.10;98.00;;;;;;5074239;28;20467;-66
2022/11/08 06:50:04;;;;;;;2.90;1.70;;;5.00;98.00;;;;;;5074111;28;20910;-66
2022/11/08 06:52:31;;;;;;;3.37;2.00;;;5.00;98.00;;;;;;5073998;28;20461;-66
2022/11/08 06:54:58;;;;;;;2.77;2.00;;;4.90;98.00;;;;;;5074082;28;20830;-66
2022/11/08 06:57:28;;;;;;;2.27;1.80;;;4.80;98.00;;;;;;5074107;28;20456;-66
2022/11/08 06:59:55;;;;;;;2.80;1.97;;;4.90;98.00;;;;;;5074186;28;20453;-66
2022/11/08 07:02:22;;;;;;;5.00;2.37;;;5.20;98.00;;;;;;5074066;28;20947;-66
2022/11/08 07:04:49;;;;;;;3.17;2.00;;;5.10;98.00;;;;;;5073928;28;20807;-66
2022/11/08 07:07:16;;;;;;;1.73;1.60;;;5.30;98.00;;;;;;5073794;28;20879;-66
2022/11/08 07:09:43;;;;;;;3.03;2.10;;;5.30;98.00;;;;;;5073440;28;21055;-67
2022/11/08 07:12:10;;;;;;;3.37;2.27;;;5.30;98.00;;;;;;5073534;28;20537;-66
2022/11/08 07:14:40;;;;;;;3.00;2.20;;;5.30;98.00;;;;;;5073561;28;20453;-66
2022/11/08 07:17:07;;;;;;;3.10;1.70;;;5.30;98.00;;;;;;5073600;28;20460;-65
2022/11/08 07:19:35;;;;;;;5.73;2.40;;;5.20;98.00;;;;;;5073515;28;20865;-66
2022/11/08 07:22:02;;;;;;;3.50;1.87;;;5.20;98.00;;;;;;5073051;28;20460;-62
2022/11/08 07:24:30;;;;;;;3.83;2.37;;;5.30;98.00;;;;;;5073243;28;20464;-62
2022/11/08 07:26:58;;;;;;;3.40;2.43;;;5.30;98.00;;;;;;5073490;28;20467;-62
2022/11/08 07:29:26;;;;;;;5.97;2.47;;;5.40;98.00;;;;;;5073210;28;20490;-62
2022/11/08 07:31:54;;;;;;;4.30;2.50;;;5.50;98.00;;;;;;5073362;28;20892;-63
2022/11/08 07:34:23;;;;;;;5.70;2.87;;;5.40;98.00;;;;;;5073253;28;20546;-62
2022/11/08 07:36:50;;;;;;;4.37;2.63;;;5.50;98.00;;;;;;5073132;28;20879;-62
2022/11/08 07:39:17;;;;;;;4.30;2.10;;;5.70;98.00;;;;;;5073149;28;20464;-62
2022/11/08 07:41:45;;;;;;;5.17;2.50;;;5.90;98.00;;;;;;5073114;28;20531;-62
2022/11/08 07:44:12;;;;;;;3.40;2.23;;;6.10;98.00;;;;;;5073068;28;20808;-62
2022/11/08 07:46:41;;;;;;;2.13;1.87;;;6.30;98.00;;;;;;5073041;28;20460;-62
2022/11/08 07:49:12;;;;;;;3.53;2.20;;;6.20;98.00;;;;;;5072903;28;20554;-62
2022/11/08 07:51:41;;;;;;;2.20;1.83;;;6.40;98.00;;;;;;5073087;28;20455;-62
2022/11/08 07:54:08;;;;;;;3.47;2.10;;;6.50;98.00;;;;;;5073171;28;20485;-63
2022/11/08 07:56:36;;;;;;;4.93;2.60;;;6.50;98.00;;;;;;5073062;28;20803;-63
2022/11/08 07:59:03;;;;;;;4.83;2.10;;;6.60;98.00;;;;;;5072742;28;20464;-62
2022/11/08 08:01:31;;;;;;;8.77;3.53;;;6.60;98.00;;;;;;5071618;28;20464;-62
2022/11/08 08:03:58;;;;;;;4.03;2.43;;;6.80;98.00;;;;;;5072710;28;21023;-62
2022/11/08 08:06:26;;;;;;;3.30;1.90;;;6.90;98.00;;;;;;5072745;28;20951;-62
2022/11/08 08:08:53;;;;;;;3.87;2.47;;;6.80;98.00;;;;;;5072278;28;20457;-63
2022/11/08 08:11:20;;;;;;;3.13;2.30;;;6.80;98.00;;;;;;5072632;28;20457;-62
2022/11/08 08:13:48;;;;;;;3.50;2.70;;;6.80;98.00;;;;;;5072300;28;20460;-63
2022/11/08 08:16:15;;;;;;;2.70;2.10;;;6.80;98.00;;;;;;5072435;28;20461;-62
2022/11/08 08:18:42;;;;;;;3.30;2.23;;;6.80;98.00;;;;;;5072232;28;20460;-62
2022/11/08 08:21:09;;;;;;;3.73;2.27;;;6.80;98.00;;;;;;5068541;28;20461;-63
2022/11/08 08:23:37;;;;;;;2.93;2.53;;;6.90;98.00;;;;;;5069636;28;20859;-62
2022/11/08 08:26:05;;;;;;;3.50;2.70;;;7.10;98.00;;;;;;5069921;28;20458;-62
2022/11/08 08:28:32;;;;;;;3.30;2.67;;;7.10;98.00;;;;;;5068884;28;20468;-62
2022/11/08 08:30:59;;;;;;;3.03;2.30;;;7.10;98.00;;;;;;5070301;28;20489;-63
2022/11/08 08:33:26;;;;;;;2.10;1.80;;;7.10;98.00;;;;;;5069330;28;20462;-63
2022/11/08 08:35:54;;;;;;;3.40;2.10;;;7.30;98.00;;;;;;5070263;28;20806;-62
2022/11/08 08:38:21;;;;;;;2.90;1.53;;;7.50;98.00;;;;;;5070434;28;20458;-62
2022/11/08 08:40:50;;;;;;;4.00;2.43;;;7.70;98.00;;;;;;5070011;28;20457;-62
2022/11/08 08:43:17;;;;;;;4.73;2.83;;;7.80;98.00;;;;;;5070798;28;20501;-61
2022/11/08 08:45:44;;;;;;;2.80;2.33;;;7.90;98.00;;;;;;5069933;28;20447;-62
2022/11/08 08:48:11;;;;;;;3.67;2.33;;;8.00;98.00;;;;;;5069681;28;20464;-62
2022/11/08 08:50:39;;;;;;;4.13;2.57;;;8.10;98.00;;;;;;5068286;28;20829;-62
2022/11/08 08:53:07;;;;;;;3.13;2.50;;;8.10;98.00;;;;;;5069555;28;20470;-63
2022/11/08 08:55:35;;;;;;;2.53;1.97;;;8.10;98.00;;;;;;5069362;28;20458;-63
2022/11/08 08:58:04;;;;;;;4.07;2.40;;;8.10;98.00;;;;;;5069325;28;20454;-63
2022/11/08 09:00:31;;;;;;;3.23;2.70;;;8.20;98.00;;;;;;5069155;28;20465;-62
2022/11/08 09:03:03;;;;;;;4.40;2.40;;;8.20;98.00;;;;;;5067944;28;20455;-62
2022/11/08 09:05:31;;;;;;;8.17;3.00;;;8.30;98.00;;;;;;5068996;28;20914;-63
2022/11/08 09:07:58;;;;;;;10.10;2.73;;;8.40;98.00;;;;;;5069136;28;20863;-63
2022/11/08 09:10:26;;;;;;;2.23;2.10;;;8.50;98.00;;;;;;5068855;28;20493;-63
2022/11/08 09:12:54;;;;;;;3.00;2.27;;;8.60;98.00;;;;;;5069001;28;20462;-63
2022/11/08 09:15:24;;;;;;;5.63;2.33;;;8.80;98.00;;;;;;5068988;28;20497;-62
2022/11/08 09:17:54;;;;;;;6.90;2.63;;;9.00;98.00;;;;;;5070343;28;20460;-63
2022/11/08 09:20:21;;;;;;;3.63;1.93;;;9.30;98.00;;;;;;5071203;28;20460;-63
2022/11/08 09:22:49;;;;;;;4.90;2.00;;;9.50;98.00;;;;;;5071182;28;20456;-63
2022/11/08 09:25:17;;;;;;;2.50;2.00;;;9.60;98.00;;;;;;5070376;28;20452;-63
2022/11/08 09:27:44;;;;;;;3.83;2.43;;;9.70;98.00;;;;;;5069948;28;20465;-63
2022/11/08 09:30:11;;;;;;;2.30;1.97;;;9.80;98.00;;;;;;5071343;28;20488;-63
2022/11/08 09:32:39;;;;;;;4.23;2.23;;;9.90;98.00;;;;;;5071323;28;20455;-63
2022/11/08 09:35:07;;;;;;;1.70;1.53;;;10.10;98.00;;;;;;5071444;28;20455;-64
2022/11/08 09:37:34;;;;;;;5.57;2.83;;;10.90;98.00;;;;;;5071177;28;20640;-63
2022/11/08 09:40:04;;;;;;;4.40;2.47;;;11.80;98.00;;;;;;5071267;28;21012;-64
2022/11/08 09:42:51;;;;;;;5.57;3.20;;;12.60;98.00;;;;;;5069829;28;20939;-63
2022/11/08 09:45:29;;;;;;;5.00;2.97;;;12.90;98.00;;;;;;5073699;28;21098;-64
2022/11/08 09:47:59;;;;;;;5.03;2.70;;;12.80;98.00;;;;;;5069713;28;20504;-64
2022/11/08 09:50:31;;;;;;;5.50;2.67;;;12.60;98.00;;;;;;5075164;28;21021;-63
2022/11/08 09:53:07;;;;;;;6.17;3.73;;;12.40;98.00;;;;;;5075475;28;20466;-63
2022/11/08 09:55:39;;;;;;;4.83;3.43;;;12.30;98.00;;;;;;5074857;28;20825;-63
2022/11/08 09:58:24;;;;;;;9.40;3.83;;;12.10;98.00;;;;;;5074957;28;20462;-64
2022/11/08 10:00:52;;;;;;;5.00;2.63;;;12.10;98.00;;;;;;5074856;28;20467;-62
2022/11/08 10:03:23;;;;;;;4.23;2.60;;;12.00;98.00;;;;;;5074422;28;20453;-63
2022/11/08 10:06:19;;;;;;;7.97;3.10;;;12.00;98.00;;;;;;5075053;28;20484;-64
2022/11/08 10:08:54;;;;;;;7.33;2.17;;;12.00;98.00;;;;;;5071888;28;20962;-63
2022/11/08 10:11:31;;;;;;;2.80;1.87;;;12.10;98.00;;;;;;5075072;28;20495;-63
2022/11/08 10:14:11;;;;;;;3.47;2.20;;;12.30;98.00;;;;;;5074643;28;20468;-63
2022/11/08 10:16:48;;;;;;;2.33;2.00;;;12.40;98.00;;;;;;5074953;28;20977;-63
2022/11/08 10:19:33;;;;;;;4.20;2.43;;;12.50;98.00;;;;;;5074707;28;20477;-63
2022/11/08 10:22:05;;;;;;;3.73;2.33;;;12.80;98.00;;;;;;5074576;28;20467;-64
2022/11/08 10:24:40;;;;;;;4.50;2.63;;;13.00;98.00;;;;;;5074433;28;20449;-63
2022/11/08 10:27:15;;;;;;;5.60;2.60;;;13.20;98.00;;;;;;5074705;28;20486;-63
2022/11/08 10:29:56;;;;;;;3.47;2.10;;;13.30;98.00;;;;;;5079336;28;20481;-63
2022/11/08 10:32:24;;;;;;;5.97;2.37;;;13.40;98.00;;;;;;5074503;28;20462;-64
2022/11/08 10:34:57;;;;;;;3.83;2.10;;;13.50;98.00;;;;;;5074621;28;20464;-64
2022/11/08 10:37:26;;;;;;;5.73;2.90;;;13.60;98.00;;;;;;5074350;28;20466;-63
2022/11/08 10:39:58;;;;;;;2.83;2.03;;;13.70;98.00;;;;;;5074144;28;20460;-64
2022/11/08 10:42:38;;;;;;;4.53;2.37;;;13.70;98.00;;;;;;5074630;28;20530;-64
2022/11/08 10:45:08;;;;;;;4.80;2.17;;;13.70;98.00;;;;;;5074307;28;20477;-63
2022/11/08 10:47:37;;;;;;;3.40;2.33;;;13.70;98.00;;;;;;5074161;28;20825;-64
2022/11/08 10:50:13;;;;;;;4.93;2.13;;;13.70;98.00;;;;;;5074207;28;20479;-64
2022/11/08 10:52:45;;;;;;;4.23;2.40;;;13.70;98.00;;;;;;5073928;28;20525;-63
2022/11/08 10:55:29;;;;;;;3.80;2.37;;;13.80;98.00;;;;;;5074162;28;20453;-63
2022/11/08 10:57:57;;;;;;;3.93;2.70;;;13.90;98.00;;;;;;5073207;28;20814;-63
2022/11/08 11:00:28;;;;;;;5.03;2.30;;;14.00;98.00;;;;;;5074079;28;20975;-63
2022/11/08 11:02:58;;;;;;;5.53;2.43;;;14.00;98.00;;;;;;5073632;28;20525;-64
2022/11/08 11:05:36;;;;;;;3.10;1.97;;;14.10;98.00;;;;;;5073940;28;20455;-63
2022/11/08 11:08:16;;;;;;;3.13;2.30;;;14.10;98.00;;;;;;5073792;28;20455;-64
2022/11/08 11:10:45;;;;;;;6.10;2.43;;;14.20;98.00;;;;;;5073121;28;20484;-63
2022/11/08 11:13:14;;;;;;;3.63;2.43;;;14.40;98.00;;;;;;5073416;28;20869;-64
2022/11/08 11:15:46;;;;;;;4.87;2.80;;;14.40;98.00;;;;;;5073603;28;20464;-64
2022/11/08 11:18:23;;;;;;;9.53;2.53;;;14.50;98.00;;;;;;5072471;28;20481;-63
2022/11/08 11:21:01;;;;;;;3.37;2.13;;;14.50;98.00;;;;;;5074179;28;20461;-64
2022/11/08 11:23:40;;;;;;;3.23;2.10;;;14.80;98.00;;;;;;5074109;28;20463;-63
2022/11/08 11:26:17;;;;;;;2.30;1.77;;;14.90;98.00;;;;;;5074507;28;20871;-63
2022/11/08 11:29:01;;;;;;;2.73;2.20;;;15.20;98.00;;;;;;5074611;28;20877;-64
2022/11/08 11:31:29;;;;;;;2.70;1.93;;;15.40;98.00;;;;;;5074256;28;20490;-64
2022/11/08 11:33:58;;;;;;;5.10;2.27;;;15.50;98.00;;;;;;5073772;28;20475;-64
2022/11/08 11:36:30;;;;;;;5.73;2.50;;;15.50;98.00;;;;;;5074185;28;20505;-63
2022/11/08 11:39:04;;;;;;;3.83;1.80;;;15.50;98.00;;;;;;5073773;28;20468;-64
2022/11/08 11:41:37;;;;;;;2.00;1.80;;;15.60;98.00;;;;;;5073526;28;20879;-63
2022/11/08 11:44:18;;;;;;;4.47;2.60;;;15.80;98.00;;;;;;5073305;28;20483;-64
2022/11/08 11:46:54;;;;;;;5.90;2.60;;;15.60;98.00;;;;;;5073852;28;20458;-64
2022/11/08 11:49:22;;;;;;;4.87;2.47;;;15.60;98.00;;;;;;5074062;28;20452;-63
2022/11/08 11:51:53;;;;;;;7.53;2.97;;;15.70;98.00;;;;;;5073462;28;20491;-64
2022/11/08 11:54:27;;;;;;;3.77;2.10;;;15.70;98.00;;;;;;5073698;28;20562;-63
2022/11/08 11:57:00;;;;;;;5.23;2.20;;;15.60;98.00;;;;;;5073484;28;20467;-64
2022/11/08 11:59:55;;;;;;;3.27;2.20;;;15.50;98.00;;;;;;5073617;28;20539;-63
2022/11/08 12:03:03;;;;;;;4.40;2.10;;;15.40;98.00;;;;;;5073419;28;20456;-63
2022/11/08 12:06:04;;;;;;;2.63;1.80;;;15.40;98.00;;;;;;5073323;28;20887;-64
2022/11/08 12:08:44;;;;;;;5.57;2.30;;;15.50;98.00;;;;;;5072236;28;20518;-64
2022/11/08 12:11:36;;;;;;;4.03;2.17;;;15.60;98.00;;;;;;5073340;28;20487;-64
2022/11/08 12:14:31;;;;;;;2.40;1.73;;;15.60;98.00;;;;;;5073089;28;20461;-64
2022/11/08 12:17:11;;;;;;;5.37;2.23;;;15.70;98.00;;;;;;5073221;28;20452;-64
2022/11/08 12:19:47;;;;;;;5.00;2.30;;;15.70;98.00;;;;;;5073232;28;20478;-64
2022/11/08 12:22:42;;;;;;;5.67;2.40;;;15.90;98.00;;;;;;5070815;28;20892;-64
2022/11/08 12:25:19;;;;;;;4.73;2.17;;;16.00;98.00;;;;;;5064529;28;20464;-65
2022/11/08 12:27:51;;;;;;;3.40;2.17;;;16.10;98.00;;;;;;5062184;28;20457;-64
2022/11/08 12:30:21;;;;;;;2.90;1.80;;;16.30;98.00;;;;;;5070042;28;20539;-64
2022/11/08 12:33:03;;;;;;;4.33;2.40;;;16.30;98.00;;;;;;5069019;28;20496;-64
2022/11/08 12:35:38;;;;;;;3.07;2.20;;;16.50;98.00;;;;;;5064486;28;20472;-64
2022/11/08 12:38:21;;;;;;;6.10;2.70;;;16.60;98.00;;;;;;5070301;28;20461;-62
2022/11/08 12:40:58;;;;;;;5.17;2.80;;;17.50;98.00;;;;;;5070149;28;20818;-63
2022/11/08 12:43:59;;;;;;;5.07;2.40;;;18.30;98.00;;;;;;5070219;28;20453;-64
2022/11/08 12:46:30;;;;;;;5.50;2.20;;;19.30;98.00;;;;;;5068934;28;20464;-63
2022/11/08 12:49:22;;;;;;;2.20;1.80;;;20.10;98.00;;;;;;5070042;28;20472;-63
2022/11/08 12:52:01;;;;;;;3.60;2.10;;;20.70;98.00;;;;;;5063170;28;20530;-64
2022/11/08 12:54:34;;;;;;;4.07;2.30;;;21.20;97.90;;;;;;5069944;28;20975;-63
2022/11/08 12:57:08;;;;;;;6.10;1.87;;;21.50;96.40;;;;;;5069949;28;20465;-64
2022/11/08 12:59:41;;;;;;;3.93;2.30;;;21.90;95.30;;;;;;5069772;28;20456;-64
2022/11/08 13:02:17;;;;;;;2.37;2.20;;;22.30;93.60;;;;;;5070205;28;20540;-63
2022/11/08 13:04:52;;;;;;;3.63;2.03;;;22.50;91.80;;;;;;5070093;28;20464;-65
2022/11/08 13:07:33;;;;;;;3.87;2.40;;;22.30;93.20;;;;;;5062071;28;20460;-63
2022/11/08 13:10:04;;;;;;;8.73;2.47;;;22.10;93.40;;;;;;5068734;28;20560;-64
2022/11/08 13:12:45;;;;;;;4.23;2.13;;;21.70;93.30;;;;;;5069751;28;21075;-64
2022/11/08 13:15:18;;;;;;;4.93;2.30;;;21.00;94.10;;;;;;5069742;28;20463;-64
2022/11/08 13:18:19;;;;;;;2.37;1.70;;;20.60;95.30;;;;;;5070084;28;20491;-64
2022/11/08 13:20:48;;;;;;;6.50;1.80;;;20.40;91.80;;;;;;5069538;28;20466;-64
2022/11/08 13:23:16;;;;;;;3.60;1.90;;;20.10;89.40;;;;;;5069660;28;20452;-63
2022/11/08 13:25:44;;;;;;;1.80;1.60;;;19.80;92.20;;;;;;5069945;28;20823;-64
2022/11/08 13:28:41;;;;;;;2.00;1.70;;;19.60;90.90;;;;;;5069371;28;20468;-65